Terminal Aerodrome Forecast
Issued by NWS St Louis, MO

Home | Current Version | Previous Version | Text Only | Print | Product List | Glossary Off
Versions: 1 2 3 4 5 6 7 8 9 10 11 12 13 14 15 16 17 18 19 20 21 22 23 24 25 26 27

000
FTUS43 KLSX 261100
TAFCOU
TAF
KCOU 261122Z 2612/2712 18012KT P6SM SCT025 OVC040
     FM261230 20012KT P6SM OVC020
     FM261400 24012G20KT P6SM BKN035
     FM270000 22008KT P6SM BKN040 OVC080=

USA.gov is the U.S. government's official web portal to all federal, state and local government web resources and services.